Portada
METAR-TAF:

METAR-TAF

Aeroports :

Aeroport de Gran Canària

Gran Canària, Espanya

latitud: 27-56N, longitud: 015-23W, altitud: 23 m

Observació

L'informe es va fer fa 27 minuts, a les 18:30 UTC
Vent 18 kt del Nord/Nord-Est
Temperatura 23°C
Humitat 65%
Pressió 1017 hPa
Visibilitat 10 km o més
Cel ennuvolat a una alçada de 3500 ft

METAR: GCLP 151830Z 02018KT 9999 BKN035 23/16 Q1017 NOSIG

Hora: 19:57 (18:57 UTC)

Pronòstic

L'informe es va fer fa 4 hores i 57 minuts, a les 14:00 UTC
Pronòstic vàlid del 15 a les 15 UTC al 16 a les 15 UTC
Vent 20 kt del Nord
Visibilitat 10 km o més
Núvols disperses a una alçada de 2500 ft

TAF: GCLP 151400Z 1515/1615 01020KT 9999 SCT025 TX25/1515Z TN21/1605Z

Observacions i pronòstics meteorològics de més de 4000 aeroports (METAR i TAF).

Les estacions disponibles són els punts grocs i vermells al mapa.

Posi el ratolí al punt desitjat per veure el nom de l'estació.

Feu clic per veure les observacions i els pronòstics meteorològics.

Per canviar el mapa: feu clic els botons verds amb una creu de color negre per apropar; al botó verd amb un guió per allunyar la imatge; o en les fletxes verdes per a mapes adjacents.


METAR-TAF: